logo
Rechercher aéroport 
image banner adimage banner adimage banner ad
image banner ad

LI-AQ01 - Aviosuperficie Celano

Situé à Celano, Italy

ICAO - , IATA -

Données fournies par Airmate  

Information générale

Coordonnées: N42°3'6" E13°33'26"
Élévation : 2247 feet MSL.
 
Voir autres Aéroports à Abruzzi

Données opérationnelles

Special qualification required
Heure actuelle UTC:
Heure actuelle locale:
Météo à : LIRH - Frosinone ( 50 km )
METAR: LIRH 251455Z 25004KT 8000 TS FEW035CB BKN045 26/23 Q1009 RMK BKN MON LIB NC VIS MIN 8000 WIND THR16 18002KT BLU
TAF: TAF LIRH 251400Z 2515/2524 20006KT 9999 SCT040 TEMPO 2515/2517 22012KT 3000 TSRA FEW030CB BKN035
Voir NOTAMs / SUP AIP / TFR affectant cet aéroport [VIEW]
Fréquences de communication: [VIEW]

Pistes:

Identifiant RWYQFULongueur (ft)Largeur (ft)SurfaceLDA (ft)
08262498ASPH
26262498ASPH

Coordonnées de l'aéroport

Adresse: Celano Italy

Vue satellite de LI-AQ01